createdAt,value
2022-09-20T00:00:08.277Z,2.08
2022-09-20T00:02:34.509Z,1.92
2022-09-20T00:05:01.007Z,2.53
2022-09-20T00:07:27.315Z,1.92
2022-09-20T00:09:53.596Z,2.30
2022-09-20T00:12:20.408Z,2.40
2022-09-20T00:14:46.685Z,2.90
2022-09-20T00:17:12.968Z,2.40
2022-09-20T00:19:39.280Z,2.42
2022-09-20T00:22:05.584Z,2.47
2022-09-20T00:24:32.220Z,2.42
2022-09-20T00:26:58.500Z,2.80
2022-09-20T00:29:25.522Z,2.80
2022-09-20T00:31:51.952Z,3.17
2022-09-20T00:34:37.170Z,3.25
2022-09-20T00:37:03.517Z,2.80
2022-09-20T00:39:29.815Z,2.80
2022-09-20T00:41:56.117Z,2.65
2022-09-20T00:44:41.113Z,3.20
2022-09-20T00:47:11.445Z,3.00
2022-09-20T00:49:38.126Z,3.45
2022-09-20T00:52:04.428Z,3.60
2022-09-20T00:54:31.348Z,3.17
2022-09-20T00:56:57.904Z,3.85
2022-09-20T00:59:30.266Z,3.47
2022-09-20T01:02:06.142Z,3.10
2022-09-20T01:04:34.664Z,3.45
2022-09-20T01:07:02.712Z,3.67
2022-09-20T01:09:29.044Z,3.38
2022-09-20T01:11:57.017Z,3.88
2022-09-20T01:14:24.380Z,3.67
2022-09-20T01:16:51.941Z,4.03
2022-09-20T01:19:34.393Z,3.83
2022-09-20T01:22:03.982Z,3.67
2022-09-20T01:24:33.268Z,3.60
2022-09-20T01:27:08.629Z,3.80
2022-09-20T01:29:39.888Z,3.40
2022-09-20T01:32:08.978Z,3.88
2022-09-20T01:34:43.071Z,4.57
2022-09-20T01:39:40.849Z,3.28
2022-09-20T01:42:12.092Z,3.65
2022-09-20T01:44:40.271Z,3.35
2022-09-20T01:47:29.100Z,3.67
2022-09-20T01:49:55.369Z,4.32
2022-09-20T01:52:33.935Z,3.13
2022-09-20T01:55:19.084Z,3.80
2022-09-20T01:57:51.433Z,4.07
2022-09-20T02:00:23.915Z,3.45
2022-09-20T02:02:50.250Z,3.75
2022-09-20T02:05:34.048Z,3.63
2022-09-20T02:08:00.777Z,3.83
2022-09-20T02:10:36.259Z,3.75
2022-09-20T02:13:21.437Z,3.92
2022-09-20T02:15:57.004Z,4.57
2022-09-20T02:18:38.667Z,4.05
2022-09-20T02:21:08.009Z,4.00
2022-09-20T02:23:53.059Z,3.85
2022-09-20T02:26:33.604Z,4.57
2022-09-20T02:29:08.245Z,4.88
2022-09-20T02:31:53.661Z,5.00
2022-09-20T02:34:32.334Z,5.45
2022-09-20T02:37:07.898Z,5.55
2022-09-20T02:39:34.171Z,6.25
2022-09-20T02:42:23.393Z,6.22
2022-09-20T02:44:56.040Z,6.25
2022-09-20T02:47:32.606Z,5.38
2022-09-20T02:50:01.949Z,6.28
2022-09-20T02:52:31.196Z,5.60
2022-09-20T02:55:05.232Z,5.30
2022-09-20T03:00:03.388Z,4.93
2022-09-20T03:03:08.425Z,5.00
2022-09-20T03:05:51.089Z,5.38
2022-09-20T03:08:20.355Z,5.63
2022-09-20T03:10:49.675Z,4.70
2022-09-20T03:13:15.967Z,5.60
2022-09-20T03:15:52.200Z,5.05
2022-09-20T03:18:39.610Z,5.68
2022-09-20T03:21:11.385Z,6.03
2022-09-20T03:23:53.072Z,5.50
2022-09-20T03:26:31.622Z,5.28
2022-09-20T03:29:04.001Z,5.57
2022-09-20T03:31:49.933Z,5.70
2022-09-20T03:34:16.249Z,7.07
2022-09-20T03:36:49.954Z,6.90
2022-09-20T03:39:29.188Z,6.57
2022-09-20T03:42:16.496Z,7.07
2022-09-20T03:45:02.130Z,6.93
2022-09-20T03:47:32.895Z,6.60
2022-09-20T03:50:11.923Z,7.75
2022-09-20T03:52:53.229Z,9.10
2022-09-20T03:55:38.532Z,7.50
2022-09-20T03:58:08.574Z,7.82
2022-09-20T04:00:45.403Z,9.25
2022-09-20T04:03:20.817Z,9.48
2022-09-20T04:05:53.093Z,9.50
2022-09-20T04:08:22.460Z,10.07
2022-09-20T04:10:51.759Z,8.63
2022-09-20T04:13:24.194Z,8.77
2022-09-20T04:15:53.456Z,8.20
2022-09-20T04:18:22.847Z,7.55
2022-09-20T04:20:59.396Z,7.53
2022-09-20T04:23:25.886Z,8.30
2022-09-20T04:25:52.244Z,7.90
2022-09-20T04:28:25.813Z,8.13
2022-09-20T04:30:55.297Z,7.80
2022-09-20T04:33:27.289Z,7.68
2022-09-20T04:36:12.337Z,8.40
2022-09-20T04:38:38.875Z,7.43
2022-09-20T04:41:34.651Z,8.57
2022-09-20T04:44:12.116Z,8.75
2022-09-20T04:46:38.386Z,8.48
2022-09-20T04:49:10.777Z,8.40
2022-09-20T04:51:58.983Z,8.65
2022-09-20T04:54:34.927Z,8.80
2022-09-20T04:57:01.194Z,10.13
2022-09-20T04:59:40.064Z,10.75
2022-09-20T05:02:35.063Z,11.05
2022-09-20T05:05:19.995Z,10.57
2022-09-20T05:07:56.752Z,10.10
2022-09-20T05:10:51.771Z,10.70
2022-09-20T05:13:19.912Z,10.70
2022-09-20T05:16:04.219Z,10.80
2022-09-20T05:20:59.395Z,10.82
2022-09-20T05:23:32.240Z,11.60
2022-09-20T05:25:58.532Z,11.88
2022-09-20T05:28:35.647Z,11.35
2022-09-20T05:31:06.168Z,11.52
2022-09-20T05:33:37.625Z,11.15
2022-09-20T05:36:10.946Z,11.32
2022-09-20T05:38:45.583Z,10.73
2022-09-20T05:41:36.893Z,12.05
2022-09-20T05:44:21.928Z,11.82
2022-09-20T05:47:01.795Z,13.35
2022-09-20T05:49:46.547Z,13.93
2022-09-20T05:52:18.991Z,11.15
2022-09-20T05:54:59.845Z,11.85
2022-09-20T05:57:42.580Z,12.60
2022-09-20T06:00:14.893Z,11.90
2022-09-20T06:03:16.893Z,12.05
2022-09-20T06:05:56.535Z,11.70
2022-09-20T06:08:41.752Z,11.52
2022-09-20T06:11:28.568Z,12.40
2022-09-20T06:14:03.495Z,11.93
2022-09-20T06:16:38.072Z,12.00
2022-09-20T06:19:22.737Z,13.57
2022-09-20T06:21:56.092Z,12.85
2022-09-20T06:24:23.014Z,12.40
2022-09-20T06:26:51.814Z,12.90
2022-09-20T06:29:20.068Z,12.95
2022-09-20T06:31:46.371Z,11.98
2022-09-20T06:34:14.700Z,11.75
2022-09-20T06:37:04.770Z,12.07
2022-09-20T06:39:52.640Z,11.18
2022-09-20T06:42:18.916Z,11.80
2022-09-20T06:44:45.265Z,11.52
2022-09-20T06:47:12.337Z,11.88
2022-09-20T06:49:41.102Z,12.20
2022-09-20T06:52:08.212Z,11.52
2022-09-20T06:54:34.595Z,11.13
2022-09-20T06:57:03.227Z,11.10
2022-09-20T06:59:29.663Z,11.85
2022-09-20T07:01:56.016Z,11.55
2022-09-20T07:04:23.305Z,11.88
2022-09-20T07:06:49.564Z,10.52
2022-09-20T07:09:15.892Z,10.88
2022-09-20T07:11:43.021Z,11.18
2022-09-20T07:14:09.355Z,11.23
2022-09-20T07:16:36.853Z,10.93
2022-09-20T07:19:03.688Z,10.75
2022-09-20T07:21:29.979Z,10.93
2022-09-20T07:23:57.642Z,10.27
2022-09-20T07:26:26.085Z,11.35
2022-09-20T07:28:53.062Z,10.52
2022-09-20T07:31:20.187Z,10.38
2022-09-20T07:33:46.572Z,9.82
2022-09-20T07:36:13.046Z,10.40
2022-09-20T07:38:39.656Z,10.50
2022-09-20T07:41:06.044Z,10.30
2022-09-20T07:43:32.380Z,10.80
2022-09-20T07:45:59.842Z,9.95
2022-09-20T07:48:27.604Z,10.43
2022-09-20T07:50:55.320Z,9.85
2022-09-20T07:53:21.837Z,9.88
2022-09-20T07:56:07.703Z,9.70
2022-09-20T07:58:35.125Z,9.93
2022-09-20T08:01:02.912Z,9.23
2022-09-20T08:03:30.408Z,8.85
2022-09-20T08:06:00.637Z,8.57
2022-09-20T08:08:28.854Z,7.95
2022-09-20T08:11:02.477Z,8.00
2022-09-20T08:16:16.812Z,7.53
2022-09-20T08:18:46.844Z,7.25
2022-09-20T08:21:13.218Z,7.18
2022-09-20T08:23:43.517Z,5.95
2022-09-20T08:26:14.051Z,5.32
2022-09-20T08:28:41.058Z,5.72
2022-09-20T08:31:12.034Z,4.78
2022-09-20T08:33:38.661Z,5.57
2022-09-20T08:36:10.059Z,5.03
2022-09-20T08:41:22.597Z,5.13
2022-09-20T08:43:55.110Z,5.25
2022-09-20T08:46:27.127Z,4.78
2022-09-20T08:48:53.602Z,4.30
2022-09-20T08:51:23.156Z,3.70
2022-09-20T08:53:53.875Z,3.88
2022-09-20T08:56:20.940Z,5.10
2022-09-20T08:58:47.223Z,3.35
2022-09-20T09:01:17.876Z,3.72
2022-09-20T09:03:44.213Z,3.47
2022-09-20T09:06:15.255Z,3.63
2022-09-20T09:08:44.688Z,3.20
2022-09-20T09:11:14.318Z,3.10
2022-09-20T09:13:43.366Z,2.80
2022-09-20T09:16:12.713Z,3.53
2022-09-20T09:18:40.097Z,2.97
2022-09-20T09:21:07.598Z,3.03
2022-09-20T09:23:39.620Z,2.60
2022-09-20T09:26:05.908Z,2.97
2022-09-20T09:28:36.770Z,2.42
2022-09-20T09:31:26.539Z,2.53
2022-09-20T09:33:52.929Z,2.75
2022-09-20T09:36:25.185Z,2.60
2022-09-20T09:39:11.421Z,3.28
2022-09-20T09:41:37.713Z,2.90
2022-09-20T09:44:09.853Z,2.60
2022-09-20T09:46:37.844Z,2.77
2022-09-20T09:49:18.311Z,2.80
2022-09-20T09:52:03.441Z,2.83
2022-09-20T09:54:35.545Z,2.55
2022-09-20T09:57:08.277Z,2.45
2022-09-20T10:02:15.322Z,2.28
2022-09-20T10:04:57.983Z,2.70
2022-09-20T10:07:41.272Z,2.47
2022-09-20T10:10:07.596Z,2.08
2022-09-20T10:12:52.152Z,2.38
2022-09-20T10:15:34.809Z,1.92
2022-09-20T10:18:25.725Z,1.75
2022-09-20T10:20:59.079Z,2.20
2022-09-20T10:24:01.308Z,2.38
2022-09-20T10:26:38.424Z,2.35
2022-09-20T10:29:15.605Z,2.05
2022-09-20T10:31:50.231Z,1.98
2022-09-20T10:34:22.724Z,2.13
2022-09-20T10:36:55.608Z,2.35
2022-09-20T10:39:36.572Z,2.60
2022-09-20T10:42:34.008Z,2.35
2022-09-20T10:45:10.531Z,2.55
2022-09-20T10:47:52.438Z,2.95
2022-09-20T10:50:29.331Z,2.85
2022-09-20T10:53:03.575Z,3.08
2022-09-20T10:55:32.648Z,2.70
2022-09-20T10:58:10.010Z,2.90
2022-09-20T11:00:53.596Z,2.63
2022-09-20T11:03:43.252Z,3.10
2022-09-20T11:06:15.152Z,3.20
2022-09-20T11:08:42.709Z,3.30
2022-09-20T11:11:23.511Z,2.80
2022-09-20T11:13:58.574Z,3.10
2022-09-20T11:16:33.170Z,3.35
2022-09-20T11:19:13.670Z,2.97
2022-09-20T11:21:44.120Z,3.25
2022-09-20T11:24:30.856Z,3.25
2022-09-20T11:26:58.982Z,3.15
2022-09-20T11:29:29.565Z,2.65
2022-09-20T11:32:00.545Z,2.85
2022-09-20T11:34:32.252Z,2.40
2022-09-20T11:37:01.245Z,2.70
2022-09-20T11:39:27.548Z,2.65
2022-09-20T11:41:55.583Z,2.50
2022-09-20T11:44:22.261Z,2.45
2022-09-20T11:47:03.273Z,2.70
2022-09-20T11:49:45.923Z,2.45
2022-09-20T11:52:31.113Z,3.10
2022-09-20T11:55:16.217Z,2.47
2022-09-20T11:57:42.575Z,2.50
2022-09-20T12:00:10.076Z,2.95
2022-09-20T12:02:50.102Z,3.13
2022-09-20T12:05:35.212Z,2.80
2022-09-20T12:08:03.649Z,2.40
2022-09-20T12:10:35.359Z,2.17
2022-09-20T12:13:02.826Z,2.50
2022-09-20T12:15:39.399Z,2.53
2022-09-20T12:18:12.341Z,3.00
2022-09-20T12:20:38.864Z,2.58
2022-09-20T12:23:24.057Z,2.40
2022-09-20T12:26:00.580Z,3.08
2022-09-20T12:28:37.644Z,3.20
2022-09-20T12:31:19.702Z,2.88
2022-09-20T12:34:05.161Z,2.65
2022-09-20T12:36:39.031Z,2.53
2022-09-20T12:39:09.407Z,2.30
2022-09-20T12:41:55.752Z,2.30
2022-09-20T12:44:31.174Z,2.05
2022-09-20T12:47:01.821Z,2.20
2022-09-20T12:49:54.477Z,2.35
2022-09-20T12:52:43.997Z,2.15
2022-09-20T12:55:11.863Z,2.20
2022-09-20T12:57:39.349Z,2.00
2022-09-20T13:00:06.985Z,2.30
2022-09-20T13:02:52.285Z,2.33
2022-09-20T13:05:32.000Z,2.42
2022-09-20T13:08:02.984Z,2.20
2022-09-20T13:10:30.756Z,1.92
2022-09-20T13:13:02.306Z,2.50
2022-09-20T13:15:29.117Z,2.08
2022-09-20T13:17:57.389Z,2.15
2022-09-20T13:20:25.309Z,1.95
2022-09-20T13:22:55.965Z,2.17
2022-09-20T13:25:24.781Z,2.42
2022-09-20T13:28:00.016Z,2.47
2022-09-20T13:30:28.192Z,2.10
2022-09-20T13:32:55.096Z,2.65
2022-09-20T13:35:24.440Z,2.80
2022-09-20T13:37:50.697Z,2.50
2022-09-20T13:40:18.191Z,2.47
2022-09-20T13:42:45.382Z,2.50
2022-09-20T13:45:13.731Z,2.20
2022-09-20T13:47:41.685Z,2.20
2022-09-20T13:50:15.994Z,2.20
2022-09-20T13:52:47.194Z,2.15
2022-09-20T13:55:30.421Z,2.08
2022-09-20T13:57:59.129Z,2.33
2022-09-20T14:00:25.712Z,1.83
2022-09-20T14:02:54.680Z,1.90
2022-09-20T14:05:23.497Z,1.88
2022-09-20T14:07:50.145Z,1.80
2022-09-20T14:10:31.664Z,1.70
2022-09-20T14:13:02.226Z,1.40
2022-09-20T14:15:30.905Z,1.50
2022-09-20T14:17:57.515Z,1.40
2022-09-20T14:20:23.906Z,1.40
2022-09-20T14:22:50.253Z,1.10
2022-09-20T14:25:17.285Z,1.77
2022-09-20T14:27:44.013Z,1.40
2022-09-20T14:30:36.056Z,1.20
2022-09-20T14:33:03.581Z,1.23
2022-09-20T14:35:30.947Z,1.13
2022-09-20T14:38:02.552Z,1.27
2022-09-20T14:40:30.424Z,1.40
2022-09-20T14:42:58.785Z,1.17
2022-09-20T14:45:25.178Z,1.27
2022-09-20T14:48:26.909Z,1.30
2022-09-20T14:51:10.348Z,1.25
2022-09-20T14:53:38.236Z,1.38
2022-09-20T14:56:04.799Z,1.40
2022-09-20T14:58:31.313Z,1.10
2022-09-20T15:01:05.050Z,1.20
2022-09-20T15:03:38.856Z,1.20
2022-09-20T15:06:06.394Z,0.98
2022-09-20T15:08:36.597Z,1.30
2022-09-20T15:11:03.520Z,1.38
2022-09-20T15:13:29.804Z,1.42
2022-09-20T15:15:56.108Z,1.63
2022-09-20T15:18:23.857Z,1.30
2022-09-20T15:20:50.616Z,1.10
2022-09-20T15:23:17.193Z,1.00
2022-09-20T15:25:43.945Z,1.00
2022-09-20T15:28:16.087Z,1.00
2022-09-20T15:30:43.033Z,1.10
2022-09-20T15:33:09.989Z,1.10
2022-09-20T15:35:36.273Z,1.27
2022-09-20T15:38:02.580Z,1.10
2022-09-20T15:40:28.902Z,1.20
2022-09-20T15:42:55.808Z,1.00
2022-09-20T15:45:23.327Z,1.02
2022-09-20T15:47:49.736Z,1.13
2022-09-20T15:50:18.783Z,1.40
2022-09-20T15:52:47.126Z,1.20
2022-09-20T15:55:13.423Z,1.40
2022-09-20T15:57:41.780Z,1.20
2022-09-20T16:00:08.663Z,1.42
2022-09-20T16:02:35.789Z,1.30
2022-09-20T16:05:02.055Z,1.38
2022-09-20T16:07:28.373Z,1.33
2022-09-20T16:09:55.355Z,1.20
2022-09-20T16:12:22.580Z,1.60
2022-09-20T16:14:49.391Z,1.40
2022-09-20T16:17:16.132Z,1.55
2022-09-20T16:19:42.469Z,1.40
2022-09-20T16:22:08.763Z,1.70
2022-09-20T16:24:35.958Z,1.30
2022-09-20T16:27:03.450Z,1.63
2022-09-20T16:29:30.436Z,1.50
2022-09-20T16:31:57.743Z,1.38
2022-09-20T16:34:30.506Z,1.33
2022-09-20T16:37:01.300Z,1.60
2022-09-20T16:39:28.065Z,1.60
2022-09-20T16:42:03.447Z,1.38
2022-09-20T16:44:29.893Z,1.40
2022-09-20T16:46:56.221Z,1.50
2022-09-20T16:49:23.117Z,1.38
2022-09-20T16:51:49.416Z,1.65
2022-09-20T16:54:16.487Z,1.55
2022-09-20T16:56:52.547Z,1.70
2022-09-20T16:59:22.760Z,1.58
2022-09-20T17:01:49.648Z,2.03
2022-09-20T17:04:18.332Z,2.30
2022-09-20T17:06:45.546Z,1.70
2022-09-20T17:09:12.231Z,2.80
2022-09-20T17:11:39.898Z,2.72
2022-09-20T17:14:06.704Z,3.10
2022-09-20T17:16:34.195Z,2.63
2022-09-20T17:19:01.883Z,2.30
2022-09-20T17:21:28.969Z,2.53
2022-09-20T17:23:56.834Z,2.00
2022-09-20T17:26:24.666Z,1.75
2022-09-20T17:28:51.775Z,1.80
2022-09-20T17:31:20.978Z,2.17
2022-09-20T17:33:47.296Z,2.00
2022-09-20T17:36:15.344Z,2.20
2022-09-20T17:38:41.925Z,2.10
2022-09-20T17:41:10.651Z,2.13
2022-09-20T17:43:37.461Z,1.83
2022-09-20T17:46:14.188Z,2.03
2022-09-20T17:48:41.423Z,1.90
2022-09-20T17:51:12.506Z,2.00
2022-09-20T17:53:39.101Z,2.08
2022-09-20T17:56:05.649Z,2.40
2022-09-20T17:58:34.230Z,2.03
2022-09-20T18:01:12.470Z,2.17
2022-09-20T18:03:40.006Z,1.70
2022-09-20T18:06:26.540Z,1.70
2022-09-20T18:08:54.649Z,1.80
2022-09-20T18:11:22.381Z,1.92
2022-09-20T18:13:48.706Z,1.80
2022-09-20T18:16:15.823Z,1.90
2022-09-20T18:18:43.487Z,1.70
2022-09-20T18:21:09.864Z,1.80
2022-09-20T18:23:36.229Z,1.85
2022-09-20T18:26:21.807Z,1.50
2022-09-20T18:28:52.133Z,1.50
2022-09-20T18:31:18.961Z,2.10
2022-09-20T18:33:45.270Z,2.00
2022-09-20T18:36:11.521Z,1.73
2022-09-20T18:38:37.810Z,2.05
2022-09-20T18:41:04.884Z,2.22
2022-09-20T18:43:32.364Z,2.60
2022-09-20T18:45:58.772Z,2.08
2022-09-20T18:48:27.081Z,1.63
2022-09-20T18:50:57.254Z,1.83
2022-09-20T18:53:30.507Z,1.70
2022-09-20T18:56:05.073Z,1.53
2022-09-20T18:58:31.444Z,1.67
2022-09-20T19:01:11.440Z,1.40
2022-09-20T19:03:50.148Z,1.45
2022-09-20T19:06:18.001Z,1.45
2022-09-20T19:08:48.769Z,1.45
2022-09-20T19:11:25.352Z,1.40
2022-09-20T19:13:57.220Z,1.40
2022-09-20T19:16:27.667Z,1.30
2022-09-20T19:18:58.653Z,1.30
2022-09-20T19:21:33.557Z,1.80
2022-09-20T19:24:04.872Z,1.77
2022-09-20T19:26:32.220Z,1.20
2022-09-20T19:29:00.058Z,1.33
2022-09-20T19:31:33.424Z,1.27
2022-09-20T19:34:01.224Z,1.40
2022-09-20T19:36:46.436Z,1.17
2022-09-20T19:39:21.524Z,1.30
2022-09-20T19:41:58.006Z,1.17
2022-09-20T19:44:35.727Z,1.30
2022-09-20T19:47:02.614Z,1.38
2022-09-20T19:49:40.212Z,1.40
2022-09-20T19:52:08.901Z,1.73
2022-09-20T19:54:36.517Z,1.70
2022-09-20T19:57:05.974Z,1.48
2022-09-20T19:59:32.628Z,1.45
2022-09-20T20:01:59.254Z,1.58
2022-09-20T20:04:25.899Z,1.55
2022-09-20T20:06:58.321Z,1.67
2022-09-20T20:09:38.773Z,1.83
2022-09-20T20:12:05.121Z,1.80
2022-09-20T20:14:46.724Z,2.20
2022-09-20T20:17:22.245Z,1.73
2022-09-20T20:19:51.500Z,2.33
2022-09-20T20:22:36.709Z,2.10
2022-09-20T20:25:03.168Z,1.90
2022-09-20T20:27:31.253Z,2.17
2022-09-20T20:29:57.652Z,2.00
2022-09-20T20:32:23.961Z,1.75
2022-09-20T20:34:50.211Z,1.60
2022-09-20T20:37:18.015Z,2.17
2022-09-20T20:39:44.352Z,2.20
2022-09-20T20:42:12.740Z,1.50
2022-09-20T20:44:39.114Z,1.90
2022-09-20T20:47:06.340Z,2.17
2022-09-20T20:49:32.923Z,2.08
2022-09-20T20:52:03.874Z,2.15
2022-09-20T20:54:30.964Z,2.28
2022-09-20T20:56:57.330Z,2.05
2022-09-20T20:59:24.521Z,2.33
2022-09-20T21:01:51.028Z,2.65
2022-09-20T21:04:17.476Z,2.40
2022-09-20T21:06:43.961Z,2.30
2022-09-20T21:09:10.600Z,2.25
2022-09-20T21:11:38.253Z,2.67
2022-09-20T21:14:07.022Z,2.15
2022-09-20T21:16:37.262Z,2.50
2022-09-20T21:19:04.594Z,2.35
2022-09-20T21:21:33.073Z,2.30
2022-09-20T21:24:01.109Z,2.45
2022-09-20T21:26:28.224Z,2.28
2022-09-20T21:28:58.956Z,2.40
2022-09-20T21:31:36.113Z,2.67
2022-09-20T21:34:04.868Z,2.80
2022-09-20T21:36:31.158Z,2.63
2022-09-20T21:38:57.428Z,2.22
2022-09-20T21:41:24.971Z,2.50
2022-09-20T21:43:53.106Z,2.58
2022-09-20T21:46:20.516Z,2.70
2022-09-20T21:48:47.759Z,2.83
2022-09-20T21:51:15.366Z,2.67
2022-09-20T21:53:41.649Z,4.32
2022-09-20T21:56:09.227Z,4.80
2022-09-20T21:58:35.596Z,3.88
2022-09-20T22:01:06.621Z,4.20
2022-09-20T22:03:37.233Z,4.53
2022-09-20T22:06:04.404Z,4.00
2022-09-20T22:08:30.674Z,3.33
2022-09-20T22:10:57.806Z,3.58
2022-09-20T22:13:24.219Z,3.38
2022-09-20T22:15:51.367Z,3.17
2022-09-20T22:18:17.702Z,3.08
2022-09-20T22:20:44.013Z,2.75
2022-09-20T22:23:11.466Z,2.30
2022-09-20T22:25:37.737Z,2.55
2022-09-20T22:28:04.016Z,2.97
2022-09-20T22:30:30.341Z,3.30
2022-09-20T22:32:56.702Z,3.30
2022-09-20T22:35:23.041Z,3.58
2022-09-20T22:37:49.331Z,3.10
2022-09-20T22:40:15.664Z,3.17
2022-09-20T22:42:42.109Z,3.15
2022-09-20T22:45:08.582Z,3.00
2022-09-20T22:47:34.861Z,3.22
2022-09-20T22:50:01.181Z,3.00
2022-09-20T22:52:27.487Z,3.38
2022-09-20T22:54:53.762Z,3.20
2022-09-20T22:57:20.067Z,3.15
2022-09-20T22:59:46.452Z,3.53
2022-09-20T23:02:12.734Z,3.58
2022-09-20T23:04:38.983Z,4.13
2022-09-20T23:07:05.255Z,3.42
2022-09-20T23:09:31.530Z,3.38
2022-09-20T23:11:57.956Z,4.35
2022-09-20T23:14:24.272Z,4.55
2022-09-20T23:16:50.625Z,4.25
2022-09-20T23:19:17.259Z,3.67
2022-09-20T23:21:44.109Z,3.58
2022-09-20T23:24:11.829Z,3.80
2022-09-20T23:26:39.420Z,3.90
2022-09-20T23:29:10.847Z,3.33
2022-09-20T23:31:38.593Z,3.88
2022-09-20T23:34:06.053Z,3.70
2022-09-20T23:36:33.453Z,3.47
2022-09-20T23:38:59.863Z,3.50
2022-09-20T23:41:26.761Z,3.20
2022-09-20T23:43:53.101Z,3.42
2022-09-20T23:46:20.236Z,3.72
2022-09-20T23:48:46.686Z,3.15
2022-09-20T23:51:14.036Z,3.90
2022-09-20T23:53:40.402Z,3.53
2022-09-20T23:56:07.143Z,4.00
2022-09-20T23:58:35.737Z,3.80
